Strona główna
METAR-TAF:

METAR-TAF

Lotnisko :

Port lotniczy Shoreham

Brighton, Anglia

Szerokość geograficzna: 50-50N, Długość geograficzna: 000-17W, wysokość: 2 m

Aktualna obserwacja pogody

Raport powstał 8 godziny i 10 minut temu, godzina 19:50 UTC
Wiatr 9 kt od zachód
Temperatura 6°C
Wilgotność 81%
Ciśnienie 1003 hPa
Widzialność 10 km lub więcej
Brak chmur poniżej 1500 m i brak chmur cumulonimbus

METAR: EGKA 111950Z 26009KT CAVOK 06/03 Q1003

czas: 04:00 (04:00 UTC)

Prognoza

Raport powstał 10 godziny i 59 minut temu, godzina 17:01 UTC
Prognoza ważna od 11 godzina 18 UTC do 11 godzina 20 UTC
Wiatr 12 kt od zachód
Widzialność 10 km lub więcej
Mało chmury na wysokości 3000 ft

TAF: EGKA 111701Z 1118/1120 26012KT 9999 FEW030

Obserwacja i prognoza pogody dla ponad 4000 lotnisk (raport METAR i TAF).

Dostępne stacje oznaczono żółtymi i czerwonymi punktami na mapie.

Najedź kursorem aby zobaczyć nazwę stacji.

Kliknij aby zobaczyć obserwacje i prognozy pogody.

Aby zmienić mapę: kliknij na zielony przycisk z czarnym krzyżykiem, aby powiększyć; na zielony przycisk z myślnikiem, aby pomniejszyć; na zielone strzałki, aby przejść do map sąsiednich.


METAR-TAF: